Central Nebraska Regional Airport Grand Island US
ICAO: KGRI
IATA: GRI
Category: Medium
Scheduled Services: Yes

Elevation: 1847 ft
TransAlt. 18000 ft.

Airport Communications:
ATIS:127.4
CLNC DEL:121.9
MINNEAPOLIS CNTR:119.4
CTAF:118.2
GND:121.9
ARNG OPS:38
COLUMBUS RDO:122.45
GRAND ISLAND TWR:118.2
UNICOM:122.95

KGRI Zoom In..

If you have problems with the map follow the link
https://www.worldairports.se/pages/airport.php?
ICAO=KGRI

Runways:

(A) RW 13 length 6608 ft width 100 ft
---- / hdg 128

(B) RW 17 length 7002 ft width 150 ft
---- / hdg 173

(C) RW 31 length 6608 ft width 100 ft
---- / hdg 308

(D) RW 35 length 7002 ft width 150 ft
ILS 111.90 / hdg 353

Location; KGRI
Day. 22 / Time. 15.53 Zulu
* Altimeter: 30.17
* Temperature: -04° c. -24.8°f.
* Wind from: 120° Speed 09 kn.
Dewpoint: -07° c.
Visibility: 7 Statute Miles.
Clouds: Broken 9500 ft.

KGRI 221553Z 12009KT 7SM BKN095 M04/M07 A3017 RMK AO2 SLP245 T10441072


Wind From 120°
Speed 09 kn.

 
 
jpsmedia.com for Web Design worldairports.se 2019   terms of use